• Join FlightAware (Why Join?)
  • Login
  • US Flag 
06:06AM EST


 

Airport Tracker/Info


-or-


 

Live Flight TrackerFlight Track Log ✈ ASH3770 ✈ 10-Jul-2013 ✈ KIAD - KORF

Flight Track Log - Related Links

Times and Time Zones

All times are in EDT time to prevent confusion due to time zone crossing. See the ASH3770 flight status page for this flight to view local times or setup timezone preferences in your user account.

Time Position Orientation Groundspeed Altitude Reporting Facility
EDT Latitude Longitude Course Direction KTS MPH feet Rate Location/Type
03:39PM 38.9667 -77.5167 106° East 209 241 2,600  Level Potomac TRACON
03:40PM 39.0167 -77.5833 314° West 237 273 4,900 1,800 Climbing Potomac TRACON
03:41PM 39.0833 -77.6333 330° Northwest 250 288 6,200 1,860 Climbing Potomac TRACON
03:42PM 38.6833 -77.2935 124° Southeast  Level Estimated
03:42PM 39.1500 -77.6167 11° North 299 344 8,700  Level Potomac TRACON
03:43PM 38.6626 -77.2031 106° East  Level FlightAware Approximate
03:43PM 39.1667 -77.5000 80° East 328 377 10,000  Level Potomac TRACON
03:44PM 38.6419 -77.1127 106° East  Level FlightAware Approximate
03:44PM 39.1667 -77.3833 90° East 349 402 10,300  Level Potomac TRACON
03:45PM 39.1500 -77.2500 99° East 361 415 12,700 1,320 Climbing Potomac TRACON
03:46PM 39.0833 -77.1500 131° Southeast 374 430 13,000 120 Climbing Potomac TRACON
03:47PM 39.0167 -77.0500 131° Southeast 362 417 13,000  Level Potomac TRACON
03:48PM 38.9500 -76.9500 131° Southeast 388 447 13,000  Level Potomac TRACON
03:49PM 38.8833 -76.8500 131° Southeast 394 453 13,000 480 Level Potomac TRACON
03:50PM 38.8333 -76.7667 128° Southeast 351 404 14,000 480 Climbing Potomac TRACON
03:51PM 38.7333 -76.7000 153° Southeast 357 411 14,000  Level Potomac TRACON
03:52PM 38.6375 -76.6814 171° South 365 420 14,000  Level Washington Center
03:53PM 38.5439 -76.6614 171° South 371 427 14,000  Level Washington Center
03:54PM 38.4542 -76.6442 171° South 348 400 14,000  Level Washington Center
03:55PM 38.3692 -76.6114 163° South 334 384 14,000  Level Washington Center
03:56PM 38.2817 -76.5969 173° South 323 372 14,000  Level Washington Center
03:57PM 38.1981 -76.6036 184° South 329 379 14,000  Level Washington Center
03:58PM 38.1061 -76.6261 191° South 334 384 14,000 -360 Level Washington Center
03:59PM 38.0164 -76.6539 194° South 334 384 13,300 -900 Descending Washington Center
04:00PM 37.9283 -76.6792 193° South 334 384 12,300 -1,020 Descending Washington Center
04:01PM 37.8469 -76.6989 191° South 322 371 11,300 -1,020 Descending Washington Center
04:02PM 37.8008 -76.7192 199° South 296 341 10,800 -1,200 Descending Washington Center
04:02PM 37.7508 -76.7239 184° South 316 364 10,100 -660 Descending Washington Center
04:03PM 37.7006 -76.7414 195° South 321 369 10,100  Level Washington Center
04:04PM 37.6278 -76.7297 173° South 294 338 10,100 -60 Level Washington Center
04:04PM 37.5550 -76.6972 161° South 303 349 10,000 -120 Descending Washington Center
04:05PM 37.5197 -76.6811 160° South 297 342 9,900 60 Descending Washington Center
04:06PM 37.4722 -76.6281 138° Southeast 293 337 10,100 120 Climbing Washington Center
04:07PM 37.4417 -76.5336 112° Southeast 288 331 10,100  Level Washington Center
04:08PM 37.4256 -76.4628 106° East 304 350 10,100 -300 Level Washington Center
04:08PM 37.4156 -76.3867 99° East 283 326 9,700 -900 Descending Washington Center
04:09PM 37.3703 -76.3028 124° Southeast 290 334 8,600 -1,560 Descending Washington Center
04:10PM 37.3100 -76.2419 141° Southeast 276 318 6,600 -2,040 Descending Washington Center
04:11PM 37.2500 -76.1789 140° Southeast 276 318 4,600 -1,080 Descending Washington Center
04:13PM 37.1667 -76.0950 141° Southeast 257 296 4,000 -180 Descending Washington Center
04:15PM 37.0711 -76.0058 143° Southeast 193 222 4,000  Level Washington Center